createdAt,value
2023-03-13T00:00:38.829Z,46.24
2023-03-13T00:01:38.820Z,45.21
2023-03-13T00:02:38.809Z,47.14
2023-03-13T00:03:38.813Z,46.20
2023-03-13T00:04:38.846Z,46.92
2023-03-13T00:55:29.515Z,25.00
2023-03-13T00:56:30.462Z,25.00
2023-03-13T00:57:30.463Z,25.00
2023-03-13T00:58:30.453Z,25.00
2023-03-13T00:59:30.437Z,25.00
2023-03-13T01:00:30.438Z,25.00
2023-03-13T01:01:30.418Z,0.00
2023-03-13T01:02:30.529Z,0.00
2023-03-13T01:03:30.451Z,0.00
2023-03-13T01:04:30.367Z,0.00
2023-03-13T01:05:30.345Z,0.00
2023-03-13T01:06:30.336Z,0.00
2023-03-13T01:07:30.324Z,0.00
2023-03-13T01:08:30.334Z,5.53
2023-03-13T01:09:30.292Z,23.75
2023-03-13T01:10:30.272Z,25.00
2023-03-13T01:11:30.354Z,25.71
2023-03-13T01:12:30.259Z,25.36
2023-03-13T01:13:30.262Z,25.02
2023-03-13T01:14:30.219Z,25.47
2023-03-13T01:15:30.351Z,24.66
2023-03-13T01:16:30.193Z,24.71
2023-03-13T01:17:30.179Z,25.26
2023-03-13T01:18:30.166Z,25.82
2023-03-13T01:19:30.151Z,25.00
2023-03-13T01:20:30.136Z,25.43
2023-03-13T01:21:30.150Z,26.58
2023-03-13T01:22:30.141Z,26.53
2023-03-13T01:23:30.117Z,25.36
2023-03-13T01:24:30.082Z,25.00
2023-03-13T01:25:30.079Z,28.06
2023-03-13T01:26:30.042Z,26.14
2023-03-13T01:27:30.077Z,25.00
2023-03-13T01:28:30.028Z,27.98
2023-03-13T01:29:30.000Z,27.23
2023-03-13T01:30:29.983Z,28.44
2023-03-13T01:31:30.047Z,26.48
2023-03-13T01:32:29.961Z,27.96
2023-03-13T01:33:29.938Z,25.23
2023-03-13T01:34:29.937Z,25.11
2023-03-13T01:35:30.346Z,26.59
2023-03-13T01:36:29.909Z,25.67
2023-03-13T01:37:29.888Z,26.61
2023-03-13T01:38:29.884Z,28.47
2023-03-13T01:39:29.872Z,29.17
2023-03-13T01:40:29.849Z,25.70
2023-03-13T01:41:29.844Z,25.00
2023-03-13T01:42:29.829Z,27.33
2023-03-13T01:43:29.861Z,27.56
2023-03-13T01:44:29.816Z,28.42
2023-03-13T01:45:29.808Z,28.47
2023-03-13T01:46:29.981Z,26.02
2023-03-13T01:47:29.775Z,29.22
2023-03-13T01:48:29.777Z,27.19
2023-03-13T01:49:29.773Z,26.78
2023-03-13T01:50:29.751Z,25.39
2023-03-13T01:51:29.743Z,23.89
2023-03-13T01:52:29.710Z,27.83
2023-03-13T01:53:29.721Z,26.52
2023-03-13T01:54:29.675Z,27.67
2023-03-13T01:55:29.677Z,28.32
2023-03-13T01:56:29.656Z,27.40
2023-03-13T01:57:29.637Z,26.11
2023-03-13T01:58:29.630Z,28.00
2023-03-13T01:59:29.635Z,27.57
2023-03-13T02:00:29.613Z,27.68
2023-03-13T02:01:29.674Z,28.57
2023-03-13T02:02:29.692Z,28.32
2023-03-13T02:03:29.565Z,26.88
2023-03-13T02:04:29.539Z,28.84
2023-03-13T02:05:29.565Z,25.11
2023-03-13T02:06:29.514Z,27.32
2023-03-13T02:07:29.513Z,29.67
2023-03-13T02:08:29.492Z,27.75
2023-03-13T02:09:29.489Z,26.06
2023-03-13T02:10:29.473Z,29.13
2023-03-13T02:11:29.468Z,27.53
2023-03-13T02:12:29.440Z,28.18
2023-03-13T02:13:29.421Z,25.00
2023-03-13T02:14:29.412Z,29.46
2023-03-13T02:15:29.428Z,29.90
2023-03-13T02:16:29.465Z,30.83
2023-03-13T02:17:29.371Z,30.12
2023-03-13T02:18:29.357Z,29.40
2023-03-13T02:19:29.345Z,28.81
2023-03-13T02:20:29.332Z,29.18
2023-03-13T02:21:29.333Z,29.00
2023-03-13T02:22:29.319Z,27.44
2023-03-13T02:23:29.294Z,28.54
2023-03-13T02:24:29.279Z,27.90
2023-03-13T02:25:29.267Z,25.00
2023-03-13T02:26:29.271Z,30.00
2023-03-13T02:27:29.237Z,26.95
2023-03-13T02:28:29.259Z,30.64
2023-03-13T02:29:29.244Z,26.18
2023-03-13T02:30:29.221Z,28.06
2023-03-13T02:31:29.324Z,28.18
2023-03-13T02:32:29.262Z,29.16
2023-03-13T02:33:29.194Z,28.79
2023-03-13T02:34:29.184Z,29.19
2023-03-13T02:35:29.216Z,28.26
2023-03-13T02:36:29.165Z,27.89
2023-03-13T02:37:29.154Z,27.68
2023-03-13T02:38:29.154Z,25.21
2023-03-13T02:39:29.136Z,27.39
2023-03-13T02:40:29.138Z,27.34
2023-03-13T02:41:29.122Z,26.52
2023-03-13T02:42:29.114Z,28.53
2023-03-13T02:43:29.113Z,30.12
2023-03-13T02:44:29.096Z,26.84
2023-03-13T02:45:29.098Z,27.92
2023-03-13T02:46:29.181Z,27.79
2023-03-13T02:47:29.100Z,29.92
2023-03-13T02:48:29.068Z,28.52
2023-03-13T02:49:29.071Z,28.23
2023-03-13T02:50:29.060Z,30.35
2023-03-13T02:51:29.041Z,28.08
2023-03-13T02:52:29.027Z,29.17
2023-03-13T02:53:29.020Z,26.29
2023-03-13T02:54:29.022Z,26.01
2023-03-13T02:55:29.010Z,28.01
2023-03-13T02:56:29.014Z,25.84
2023-03-13T02:57:28.997Z,27.27
2023-03-13T02:58:31.693Z,27.50
2023-03-13T02:59:28.986Z,27.87
2023-03-13T03:00:29.005Z,28.09
2023-03-13T03:01:28.971Z,28.23
2023-03-13T03:02:28.982Z,28.36
2023-03-13T03:03:28.986Z,28.61
2023-03-13T03:04:28.940Z,28.00
2023-03-13T03:05:28.950Z,27.00
2023-03-13T03:06:28.927Z,27.12
2023-03-13T03:07:28.948Z,26.15
2023-03-13T03:08:28.918Z,28.04
2023-03-13T03:09:28.892Z,29.04
2023-03-13T03:10:28.892Z,28.37
2023-03-13T03:11:28.879Z,28.95
2023-03-13T03:12:28.861Z,26.80
2023-03-13T03:13:28.850Z,26.35
2023-03-13T03:14:28.834Z,28.18
2023-03-13T03:15:28.826Z,27.27
2023-03-13T03:16:28.973Z,29.79
2023-03-13T03:17:28.815Z,28.20
2023-03-13T03:18:28.804Z,28.21
2023-03-13T03:19:28.807Z,28.75
2023-03-13T03:20:28.770Z,28.55
2023-03-13T03:21:28.758Z,28.10
2023-03-13T03:22:28.753Z,27.48
2023-03-13T03:23:28.752Z,27.96
2023-03-13T03:24:28.737Z,29.58
2023-03-13T03:25:28.724Z,26.37
2023-03-13T03:26:28.728Z,28.79
2023-03-13T03:27:28.711Z,30.25
2023-03-13T03:28:28.694Z,29.55
2023-03-13T03:29:28.723Z,31.27
2023-03-13T03:30:28.677Z,28.24
2023-03-13T03:31:28.692Z,30.43
2023-03-13T03:32:28.690Z,28.45
2023-03-13T03:33:28.661Z,27.24
2023-03-13T03:34:28.656Z,28.75
2023-03-13T03:35:28.680Z,27.65
2023-03-13T03:36:28.635Z,28.68
2023-03-13T03:37:28.620Z,27.47
2023-03-13T03:38:28.621Z,26.66
2023-03-13T03:39:28.634Z,25.79
2023-03-13T03:40:28.629Z,27.02
2023-03-13T03:41:28.604Z,28.77
2023-03-13T03:42:28.586Z,27.28
2023-03-13T03:43:28.601Z,28.29
2023-03-13T03:44:28.576Z,27.92
2023-03-13T03:45:28.636Z,27.92
2023-03-13T03:46:28.585Z,29.61
2023-03-13T03:47:28.669Z,28.75
2023-03-13T03:48:28.568Z,27.94
2023-03-13T03:49:28.567Z,27.74
2023-03-13T03:50:28.550Z,29.06
2023-03-13T03:51:28.575Z,26.87
2023-03-13T03:52:28.534Z,27.68
2023-03-13T03:53:28.520Z,27.58
2023-03-13T03:54:28.520Z,27.81
2023-03-13T03:55:28.509Z,28.82
2023-03-13T03:56:28.493Z,27.06
2023-03-13T03:57:28.480Z,27.85
2023-03-13T03:58:28.463Z,27.83
2023-03-13T03:59:28.444Z,27.75
2023-03-13T04:00:28.444Z,25.36
2023-03-13T04:01:28.436Z,28.60
2023-03-13T04:02:28.443Z,27.80
2023-03-13T04:03:28.495Z,26.87
2023-03-13T04:04:28.373Z,28.00
2023-03-13T04:05:28.362Z,25.97
2023-03-13T04:06:28.349Z,29.09
2023-03-13T04:07:28.387Z,26.27
2023-03-13T04:08:28.334Z,29.35
2023-03-13T04:09:30.954Z,28.37
2023-03-13T04:10:28.305Z,28.67
2023-03-13T04:11:28.295Z,28.66
2023-03-13T04:12:28.281Z,27.39
2023-03-13T04:13:28.276Z,29.57
2023-03-13T04:14:28.266Z,29.37
2023-03-13T04:15:28.260Z,27.64
2023-03-13T04:16:28.345Z,27.81
2023-03-13T04:17:28.249Z,29.72
2023-03-13T04:18:28.234Z,28.33
2023-03-13T04:19:28.224Z,28.34
2023-03-13T04:20:28.209Z,26.98
2023-03-13T04:21:28.204Z,30.39
2023-03-13T04:22:28.194Z,30.58
2023-03-13T04:23:28.219Z,28.90
2023-03-13T04:24:28.184Z,28.60
2023-03-13T04:25:28.174Z,25.65
2023-03-13T04:26:28.159Z,28.46
2023-03-13T04:27:28.150Z,30.10
2023-03-13T04:28:28.143Z,27.94
2023-03-13T04:29:28.131Z,30.73
2023-03-13T04:30:28.156Z,29.40
2023-03-13T04:31:28.116Z,29.09
2023-03-13T04:32:28.189Z,27.76
2023-03-13T04:33:28.093Z,30.18
2023-03-13T04:34:28.082Z,28.50
2023-03-13T04:35:28.153Z,27.59
2023-03-13T04:36:28.137Z,28.58
2023-03-13T04:37:28.077Z,28.98
2023-03-13T04:38:28.084Z,27.95
2023-03-13T04:39:28.083Z,28.85
2023-03-13T04:40:28.065Z,28.23
2023-03-13T04:41:28.052Z,27.38
2023-03-13T04:42:28.056Z,27.69
2023-03-13T04:43:28.049Z,28.60
2023-03-13T04:44:28.054Z,28.56
2023-03-13T04:45:28.068Z,28.68
2023-03-13T04:46:28.112Z,31.16
2023-03-13T04:47:28.046Z,28.71
2023-03-13T04:48:28.027Z,29.36
2023-03-13T04:49:28.010Z,30.15
2023-03-13T04:50:27.998Z,30.30
2023-03-13T04:51:27.988Z,30.11
2023-03-13T04:52:27.987Z,29.57
2023-03-13T04:53:27.981Z,27.75
2023-03-13T04:54:27.965Z,29.52
2023-03-13T04:55:27.972Z,29.40
2023-03-13T04:56:42.269Z,29.17
2023-03-13T04:57:27.952Z,29.64
2023-03-13T04:58:27.939Z,30.38
2023-03-13T04:59:27.935Z,30.48
2023-03-13T05:00:27.947Z,31.32
2023-03-13T05:01:28.019Z,30.23
2023-03-13T05:02:28.050Z,32.39
2023-03-13T05:03:27.914Z,30.38
2023-03-13T05:04:27.903Z,29.11
2023-03-13T05:05:27.945Z,28.65
2023-03-13T05:06:27.897Z,27.37
2023-03-13T05:07:27.892Z,28.55
2023-03-13T05:08:27.892Z,28.88
2023-03-13T05:09:27.876Z,29.20
2023-03-13T05:10:27.869Z,29.25
2023-03-13T05:11:27.896Z,29.19
2023-03-13T05:12:27.856Z,29.67
2023-03-13T05:13:27.853Z,27.90
2023-03-13T05:14:27.838Z,30.53
2023-03-13T05:15:27.823Z,28.49
2023-03-13T05:16:27.825Z,30.09
2023-03-13T05:17:27.814Z,27.88
2023-03-13T05:18:27.810Z,28.86
2023-03-13T05:19:27.801Z,28.49
2023-03-13T05:20:27.790Z,27.52
2023-03-13T05:21:27.778Z,28.38
2023-03-13T05:22:27.777Z,29.83
2023-03-13T05:23:27.771Z,29.08
2023-03-13T05:24:27.775Z,29.15
2023-03-13T05:25:27.769Z,27.92
2023-03-13T05:26:27.746Z,27.53
2023-03-13T05:27:27.761Z,28.24
2023-03-13T05:28:27.724Z,28.26
2023-03-13T05:29:27.729Z,31.15
2023-03-13T05:30:27.727Z,30.71
2023-03-13T05:31:27.803Z,29.61
2023-03-13T05:32:27.785Z,28.65
2023-03-13T05:33:27.714Z,27.91
2023-03-13T05:34:27.716Z,28.78
2023-03-13T05:35:27.759Z,29.48
2023-03-13T05:36:27.713Z,27.76
2023-03-13T05:37:27.699Z,28.59
2023-03-13T05:38:27.714Z,28.51
2023-03-13T05:39:27.685Z,28.45
2023-03-13T05:40:27.679Z,29.17
2023-03-13T05:41:27.690Z,28.50
2023-03-13T05:42:27.679Z,27.45
2023-03-13T05:43:27.699Z,27.20
2023-03-13T05:44:27.661Z,27.04
2023-03-13T05:45:27.662Z,29.30
2023-03-13T05:46:27.655Z,27.10
2023-03-13T05:47:27.626Z,30.28
2023-03-13T05:48:27.627Z,27.06
2023-03-13T05:49:27.602Z,27.25
2023-03-13T05:50:27.592Z,27.24
2023-03-13T05:51:27.623Z,29.26
2023-03-13T05:52:27.577Z,28.72
2023-03-13T05:53:27.564Z,28.64
2023-03-13T05:54:27.542Z,29.52
2023-03-13T05:55:27.539Z,29.18
2023-03-13T05:56:27.527Z,27.75
2023-03-13T05:57:27.521Z,28.68
2023-03-13T05:58:27.512Z,30.40
2023-03-13T05:59:27.533Z,28.74
2023-03-13T06:00:27.500Z,29.30
2023-03-13T06:01:27.489Z,28.98
2023-03-13T06:02:27.483Z,28.67
2023-03-13T06:03:27.489Z,28.81
2023-03-13T06:04:27.617Z,28.39
2023-03-13T06:05:27.450Z,29.88
2023-03-13T06:06:27.460Z,27.30
2023-03-13T06:07:27.423Z,29.50
2023-03-13T06:08:27.419Z,29.03
2023-03-13T06:09:27.409Z,29.56
2023-03-13T06:10:27.399Z,29.85
2023-03-13T06:11:27.391Z,28.91
2023-03-13T06:12:27.376Z,28.17
2023-03-13T06:13:27.354Z,27.88
2023-03-13T06:14:27.333Z,30.07
2023-03-13T06:15:27.345Z,28.55
2023-03-13T06:16:27.376Z,29.21
2023-03-13T06:17:27.264Z,29.75
2023-03-13T06:18:27.276Z,30.83
2023-03-13T06:19:27.370Z,28.88
2023-03-13T06:20:27.255Z,28.89
2023-03-13T06:21:27.251Z,32.28
2023-03-13T06:22:27.226Z,31.15
2023-03-13T06:23:27.215Z,31.22
2023-03-13T06:24:27.201Z,32.22
2023-03-13T06:25:27.189Z,34.57
2023-03-13T06:26:27.174Z,32.44
2023-03-13T06:27:27.174Z,32.91
2023-03-13T06:28:27.163Z,32.53
2023-03-13T06:29:27.152Z,33.66
2023-03-13T06:30:27.144Z,37.00
2023-03-13T06:31:27.183Z,35.08
2023-03-13T06:32:27.498Z,37.12
2023-03-13T06:33:27.169Z,39.45
2023-03-13T06:34:27.375Z,40.64
2023-03-13T06:35:27.102Z,42.28
2023-03-13T06:36:27.132Z,43.50
2023-03-13T06:37:27.154Z,43.20
2023-03-13T06:38:27.057Z,44.90
2023-03-13T06:39:27.379Z,47.45
2023-03-13T06:40:27.063Z,47.89
2023-03-13T06:41:27.062Z,49.24
2023-03-13T06:42:27.053Z,49.87
2023-03-13T06:43:27.084Z,52.53
2023-03-13T06:44:27.381Z,53.88
2023-03-13T06:45:27.023Z,57.15
2023-03-13T06:46:27.074Z,59.57
2023-03-13T06:47:27.045Z,62.21
2023-03-13T06:48:27.012Z,64.82
2023-03-13T06:49:27.418Z,65.58
2023-03-13T06:50:27.388Z,67.15
2023-03-13T06:51:26.967Z,66.39
2023-03-13T06:52:41.257Z,71.84
2023-03-13T06:53:26.981Z,72.40
2023-03-13T06:54:26.918Z,74.31
2023-03-13T06:55:27.412Z,77.26
2023-03-13T06:56:26.893Z,84.23
2023-03-13T06:57:26.882Z,96.93
2023-03-13T06:58:32.642Z,98.97
2023-03-13T06:59:27.899Z,99.58
2023-03-13T07:00:27.164Z,99.57
2023-03-13T07:01:26.999Z,101.19
2023-03-13T07:04:26.824Z,100.14
2023-03-13T07:05:42.538Z,103.14
2023-03-13T07:06:30.107Z,100.22
2023-03-13T07:07:31.884Z,100.36
2023-03-13T07:08:26.947Z,100.38
2023-03-13T07:09:26.736Z,104.49
2023-03-13T07:11:26.928Z,116.93
2023-03-13T07:12:26.703Z,127.22
2023-03-13T07:13:26.693Z,130.04
2023-03-13T07:14:26.712Z,127.74
2023-03-13T07:15:26.651Z,121.94
2023-03-13T07:16:27.153Z,125.81
2023-03-13T07:17:26.615Z,126.43
2023-03-13T07:18:26.605Z,127.10
2023-03-13T07:19:26.635Z,128.63
2023-03-13T07:20:27.621Z,128.00
2023-03-13T07:21:26.947Z,128.47
2023-03-13T07:22:26.534Z,129.68
2023-03-13T07:23:26.540Z,127.42
2023-03-13T07:24:26.554Z,127.56
2023-03-13T07:25:26.500Z,128.52
2023-03-13T07:26:26.992Z,127.66
2023-03-13T07:27:26.593Z,129.12
2023-03-13T07:28:27.476Z,126.28
2023-03-13T07:29:26.492Z,127.62
2023-03-13T07:30:30.146Z,127.90
2023-03-13T07:31:26.558Z,128.12
2023-03-13T07:32:26.520Z,127.99
2023-03-13T07:33:26.463Z,129.13
2023-03-13T07:34:26.436Z,128.99
2023-03-13T07:35:27.028Z,128.16
2023-03-13T07:36:26.501Z,130.45
2023-03-13T07:37:26.921Z,128.27
2023-03-13T07:38:26.398Z,130.25
2023-03-13T07:39:26.402Z,129.77
2023-03-13T07:40:26.355Z,130.20
2023-03-13T07:41:26.379Z,129.00
2023-03-13T07:42:26.450Z,127.33
2023-03-13T07:43:26.357Z,128.50
2023-03-13T07:44:27.330Z,124.92
2023-03-13T07:45:26.371Z,130.49
2023-03-13T07:46:27.399Z,126.65
2023-03-13T07:47:27.413Z,128.51
2023-03-13T07:48:26.411Z,128.75
2023-03-13T07:49:26.262Z,126.64
2023-03-13T07:50:26.473Z,125.81
2023-03-13T07:51:42.053Z,125.92
2023-03-13T07:52:26.225Z,126.36
2023-03-13T07:53:26.385Z,127.55
2023-03-13T07:54:26.220Z,127.64
2023-03-13T07:55:26.417Z,127.21
2023-03-13T07:56:26.187Z,129.46
2023-03-13T07:57:26.423Z,126.58
2023-03-13T07:58:26.157Z,127.30
2023-03-13T07:59:26.170Z,125.02
2023-03-13T08:00:26.182Z,126.86
2023-03-13T08:01:29.123Z,124.61
2023-03-13T08:02:26.230Z,125.09
2023-03-13T08:03:26.196Z,125.31
2023-03-13T08:04:26.166Z,125.93
2023-03-13T08:05:28.466Z,122.70
2023-03-13T08:06:26.475Z,129.39
2023-03-13T08:07:26.152Z,131.19
2023-03-13T08:08:26.567Z,126.20
2023-03-13T08:09:26.048Z,126.39
2023-03-13T08:10:26.416Z,125.93
2023-03-13T08:11:26.017Z,123.37
2023-03-13T08:12:26.015Z,126.83
2023-03-13T08:13:26.013Z,123.81
2023-03-13T08:14:26.420Z,123.42
2023-03-13T08:15:26.001Z,125.18
2023-03-13T08:16:26.510Z,121.06
2023-03-13T08:17:25.972Z,123.26
2023-03-13T08:18:26.419Z,121.20
2023-03-13T08:19:25.936Z,122.66
2023-03-13T08:20:26.006Z,122.79
2023-03-13T08:21:25.900Z,121.29
2023-03-13T08:22:25.890Z,121.95
2023-03-13T08:23:25.953Z,121.88
2023-03-13T08:24:25.870Z,118.42
2023-03-13T08:25:25.840Z,119.84
2023-03-13T08:26:25.828Z,122.47
2023-03-13T08:28:25.925Z,118.77
2023-03-13T08:29:25.780Z,119.39
2023-03-13T08:30:25.868Z,119.17
2023-03-13T08:31:25.926Z,118.24
2023-03-13T08:32:25.836Z,120.46
2023-03-13T08:33:25.779Z,117.93
2023-03-13T08:34:25.789Z,117.89
2023-03-13T08:35:25.826Z,116.12
2023-03-13T08:36:25.933Z,116.64
2023-03-13T08:37:25.749Z,118.34
2023-03-13T08:38:25.925Z,121.61
2023-03-13T08:39:25.756Z,121.94
2023-03-13T08:40:25.727Z,121.16
2023-03-13T08:41:25.922Z,123.12
2023-03-13T08:42:25.699Z,129.74
2023-03-13T08:43:25.694Z,134.20
2023-03-13T08:44:25.950Z,136.59
2023-03-13T08:45:26.205Z,137.44
2023-03-13T08:46:26.037Z,142.68
2023-03-13T08:47:25.624Z,148.30
2023-03-13T08:48:25.659Z,154.90
2023-03-13T08:49:25.596Z,157.68
2023-03-13T08:50:25.713Z,166.87
2023-03-13T08:51:25.946Z,169.82
2023-03-13T08:52:25.559Z,175.98
2023-03-13T08:53:26.616Z,178.72
2023-03-13T08:54:25.538Z,182.25
2023-03-13T08:55:26.665Z,190.16
2023-03-13T08:56:25.986Z,201.22
2023-03-13T08:57:25.506Z,204.97
2023-03-13T08:58:26.478Z,210.86
2023-03-13T08:59:25.936Z,214.87
2023-03-13T09:00:25.460Z,217.23
2023-03-13T09:01:25.469Z,223.00
2023-03-13T09:02:25.547Z,227.00
2023-03-13T09:03:25.519Z,233.13
2023-03-13T09:04:25.541Z,240.19
2023-03-13T09:05:25.441Z,242.95
2023-03-13T09:06:25.402Z,244.82
2023-03-13T09:07:25.374Z,248.36
2023-03-13T09:08:25.375Z,249.32
2023-03-13T09:09:25.472Z,250.00
2023-03-13T09:10:26.347Z,250.00
2023-03-13T09:11:25.467Z,245.88
2023-03-13T09:12:31.171Z,249.72
2023-03-13T09:13:25.320Z,250.20
2023-03-13T09:14:25.472Z,251.74
2023-03-13T09:15:25.281Z,253.57
2023-03-13T09:16:25.269Z,257.26
2023-03-13T09:17:25.240Z,269.63
2023-03-13T09:18:25.249Z,252.60
2023-03-13T09:19:25.473Z,250.00
2023-03-13T09:20:25.161Z,247.10
2023-03-13T09:21:25.606Z,248.49
2023-03-13T09:22:25.111Z,248.73
2023-03-13T09:23:25.098Z,247.60
2023-03-13T09:24:25.072Z,270.99
2023-03-13T09:25:25.062Z,244.15
2023-03-13T09:26:25.377Z,237.89
2023-03-13T09:27:25.497Z,234.99
2023-03-13T09:28:24.987Z,233.73
2023-03-13T09:29:24.966Z,233.59
2023-03-13T09:30:24.945Z,239.13
2023-03-13T09:31:28.237Z,240.08
2023-03-13T09:32:25.059Z,240.29
2023-03-13T09:33:24.894Z,240.56
2023-03-13T09:34:24.887Z,242.06
2023-03-13T09:35:24.848Z,244.62
2023-03-13T09:36:24.938Z,248.86
2023-03-13T09:37:24.814Z,248.13
2023-03-13T09:38:24.781Z,248.28
2023-03-13T09:39:24.761Z,249.49
2023-03-13T09:40:25.731Z,251.27
2023-03-13T09:41:24.697Z,250.55
2023-03-13T09:42:24.954Z,240.27
2023-03-13T09:43:25.602Z,238.41
2023-03-13T09:44:24.564Z,241.02
2023-03-13T09:45:24.532Z,241.78
2023-03-13T09:46:24.547Z,239.26
2023-03-13T09:47:24.954Z,243.22
2023-03-13T09:48:24.456Z,241.73
2023-03-13T09:49:24.454Z,214.29
2023-03-13T09:50:24.407Z,147.15
2023-03-13T09:51:24.469Z,129.40
2023-03-13T09:52:24.574Z,129.20
2023-03-13T09:53:24.442Z,146.29
2023-03-13T09:54:24.522Z,158.66
2023-03-13T09:55:24.491Z,157.27
2023-03-13T09:56:24.534Z,158.15
2023-03-13T09:57:24.556Z,158.46
2023-03-13T09:58:24.544Z,158.06
2023-03-13T09:59:25.571Z,155.37
2023-03-13T10:00:27.752Z,156.15
2023-03-13T10:01:24.990Z,156.28
2023-03-13T10:02:24.560Z,156.88
2023-03-13T10:03:24.546Z,158.24
2023-03-13T10:04:24.617Z,160.82
2023-03-13T10:05:24.554Z,166.76
2023-03-13T10:06:24.960Z,168.62
2023-03-13T10:07:24.551Z,169.10
2023-03-13T10:08:24.964Z,171.37
2023-03-13T10:09:24.560Z,170.98
2023-03-13T10:10:24.532Z,171.95
2023-03-13T10:11:24.522Z,172.87
2023-03-13T10:12:25.548Z,175.38
2023-03-13T10:13:24.506Z,178.86
2023-03-13T10:14:24.494Z,177.44
2023-03-13T10:15:24.515Z,177.66
2023-03-13T10:16:24.592Z,179.70
2023-03-13T10:17:24.462Z,179.45
2023-03-13T10:18:24.418Z,181.14
2023-03-13T10:19:24.403Z,184.29
2023-03-13T10:20:24.464Z,186.80
2023-03-13T10:21:24.364Z,188.31
2023-03-13T10:22:24.489Z,188.26
2023-03-13T10:23:24.462Z,193.61
2023-03-13T10:24:24.291Z,195.05
2023-03-13T10:25:24.263Z,195.72
2023-03-13T10:26:24.470Z,195.68
2023-03-13T10:27:24.227Z,196.54
2023-03-13T10:28:24.200Z,198.32
2023-03-13T10:29:24.469Z,197.25
2023-03-13T10:30:24.173Z,203.14
2023-03-13T10:31:24.249Z,202.87
2023-03-13T10:32:24.171Z,203.17
2023-03-13T10:33:24.074Z,195.88
2023-03-13T10:34:24.473Z,199.49
2023-03-13T10:35:24.042Z,203.31
2023-03-13T10:36:27.183Z,203.87
2023-03-13T10:37:23.956Z,204.14
2023-03-13T10:38:25.672Z,205.02
2023-03-13T10:39:24.900Z,206.90
2023-03-13T10:40:23.898Z,204.37
2023-03-13T10:41:23.843Z,205.51
2023-03-13T10:42:23.819Z,208.68
2023-03-13T10:43:23.981Z,212.19
2023-03-13T10:44:23.950Z,218.55
2023-03-13T10:45:25.362Z,220.16
2023-03-13T10:47:23.729Z,225.92
2023-03-13T10:48:23.978Z,226.37
2023-03-13T10:49:23.641Z,226.49
2023-03-13T10:50:23.975Z,228.65
2023-03-13T10:51:23.595Z,229.75
2023-03-13T10:52:23.986Z,227.60
2023-03-13T10:53:23.564Z,232.91
2023-03-13T10:54:23.530Z,235.21
2023-03-13T10:55:23.987Z,233.29
2023-03-13T10:56:23.485Z,204.90
2023-03-13T10:57:23.482Z,190.68
2023-03-13T10:58:23.448Z,168.47
2023-03-13T10:59:23.437Z,160.11
2023-03-13T11:00:23.425Z,165.48
2023-03-13T11:01:23.425Z,174.48
2023-03-13T11:02:23.594Z,175.53
2023-03-13T11:03:23.591Z,179.16
2023-03-13T11:04:23.381Z,182.21
2023-03-13T11:05:23.394Z,181.83
2023-03-13T11:06:23.486Z,189.74
2023-03-13T11:07:23.312Z,187.40
2023-03-13T11:08:23.394Z,184.88
2023-03-13T11:09:23.314Z,185.03
2023-03-13T11:10:23.274Z,184.16
2023-03-13T11:11:23.491Z,184.76
2023-03-13T11:12:23.236Z,185.56
2023-03-13T11:13:35.550Z,186.09
2023-03-13T11:14:23.203Z,186.41
2023-03-13T11:15:23.251Z,186.79
2023-03-13T11:16:23.299Z,188.59
2023-03-13T11:17:23.145Z,191.67
2023-03-13T11:18:23.516Z,194.19
2023-03-13T11:19:23.148Z,197.20
2023-03-13T11:20:23.104Z,200.29
2023-03-13T11:21:23.079Z,201.25
2023-03-13T11:22:23.142Z,202.40
2023-03-13T11:23:23.502Z,202.00
2023-03-13T11:24:23.025Z,201.85
2023-03-13T11:25:22.996Z,201.68
2023-03-13T11:26:22.971Z,202.20
2023-03-13T11:27:22.993Z,201.61
2023-03-13T11:28:23.023Z,199.25
2023-03-13T11:29:23.048Z,204.94
2023-03-13T11:30:23.068Z,202.66
2023-03-13T11:31:22.946Z,202.41
2023-03-13T11:32:22.947Z,202.04
2023-03-13T11:33:22.819Z,203.27
2023-03-13T11:34:23.788Z,203.17
2023-03-13T11:35:23.031Z,205.44
2023-03-13T11:36:22.762Z,204.31
2023-03-13T11:37:22.744Z,205.45
2023-03-13T11:38:22.731Z,205.18
2023-03-13T11:39:23.011Z,204.64
2023-03-13T11:40:23.000Z,204.44
2023-03-13T11:41:22.663Z,206.50
2023-03-13T11:42:22.638Z,206.09
2023-03-13T11:43:25.893Z,203.88
2023-03-13T11:44:22.606Z,203.97
2023-03-13T11:45:23.081Z,203.94
2023-03-13T11:46:22.768Z,204.47
2023-03-13T11:52:39.601Z,25.00
2023-03-13T11:56:40.582Z,25.93
2023-03-13T12:00:40.193Z,28.99
2023-03-13T12:04:40.162Z,31.08
2023-03-13T12:08:40.204Z,30.61
2023-03-13T12:12:39.587Z,26.63
2023-03-13T12:16:39.648Z,26.20
2023-03-13T12:20:39.251Z,0.00
2023-03-13T12:24:40.135Z,0.00
2023-03-13T12:28:39.727Z,43.96
2023-03-13T12:32:39.662Z,27.52
2023-03-13T12:36:40.156Z,24.92
2023-03-13T12:40:40.126Z,58.62
2023-03-13T12:44:40.596Z,74.87
2023-03-13T12:48:40.124Z,49.59
2023-03-13T12:52:40.118Z,115.51
2023-03-13T12:56:40.145Z,57.33
2023-03-13T13:00:40.375Z,83.21
2023-03-13T13:04:40.250Z,169.02
2023-03-13T13:08:40.110Z,145.46
2023-03-13T13:12:40.235Z,157.14
2023-03-13T13:16:39.726Z,168.51
2023-03-13T13:20:39.617Z,208.08
2023-03-13T13:24:39.454Z,307.95
2023-03-13T13:28:39.779Z,230.83
2023-03-13T13:32:39.641Z,228.51
2023-03-13T13:36:39.373Z,217.57
2023-03-13T13:40:39.613Z,206.46
2023-03-13T13:44:39.642Z,193.14
2023-03-13T13:48:39.617Z,189.56
2023-03-13T13:52:39.616Z,184.48
2023-03-13T13:56:40.171Z,181.92
2023-03-13T14:00:39.645Z,179.21
2023-03-13T14:04:39.635Z,176.26
2023-03-13T14:08:39.629Z,174.31
2023-03-13T14:12:39.634Z,172.54
2023-03-13T14:16:39.931Z,170.08
2023-03-13T14:20:39.640Z,168.48
2023-03-13T14:24:39.139Z,166.71
2023-03-13T14:28:39.107Z,163.12
2023-03-13T14:32:39.205Z,165.11
2023-03-13T14:36:39.151Z,161.97
2023-03-13T14:40:39.150Z,161.60
2023-03-13T14:44:38.854Z,157.87
2023-03-13T14:48:39.206Z,160.64
2023-03-13T14:52:39.147Z,156.27
2023-03-13T14:56:39.180Z,156.98
2023-03-13T15:00:38.765Z,153.45
2023-03-13T15:04:38.650Z,153.54
2023-03-13T15:08:38.668Z,152.39
2023-03-13T15:12:38.649Z,150.75
2023-03-13T15:16:38.680Z,149.12
2023-03-13T15:20:38.240Z,148.47
2023-03-13T15:24:38.166Z,147.13
2023-03-13T15:28:38.161Z,145.17
2023-03-13T15:32:38.206Z,145.83
2023-03-13T15:36:37.826Z,143.88
2023-03-13T15:40:38.161Z,142.16
2023-03-13T15:44:37.573Z,142.26
2023-03-13T15:48:37.669Z,144.26
2023-03-13T15:52:37.706Z,141.04
2023-03-13T15:56:37.287Z,140.55
2023-03-13T16:00:37.149Z,138.61
2023-03-13T16:04:37.237Z,140.22
2023-03-13T16:08:37.490Z,141.84
2023-03-13T16:12:37.174Z,139.44
2023-03-13T16:16:37.913Z,137.59
2023-03-13T16:20:36.683Z,133.95
2023-03-13T16:24:36.760Z,137.28
2023-03-13T16:28:36.486Z,136.41
2023-03-13T16:32:36.740Z,136.62
2023-03-13T16:36:36.333Z,133.67
2023-03-13T16:40:36.431Z,136.30
2023-03-13T16:44:36.178Z,137.08
2023-03-13T16:48:36.125Z,136.57
2023-03-13T16:52:36.084Z,137.45
2023-03-13T16:56:36.067Z,136.65
2023-03-13T17:00:36.040Z,137.03
2023-03-13T17:04:36.106Z,135.38
2023-03-13T17:08:36.000Z,134.43
2023-03-13T17:12:35.948Z,134.84
2023-03-13T17:16:36.258Z,136.38
2023-03-13T17:20:35.777Z,134.29
2023-03-13T17:24:35.733Z,134.40
2023-03-13T17:28:35.713Z,133.13
2023-03-13T17:32:35.757Z,132.09
2023-03-13T17:36:35.654Z,131.53
2023-03-13T17:40:37.411Z,131.26
2023-03-13T17:44:35.471Z,128.97
2023-03-13T17:48:35.276Z,131.06
2023-03-13T17:52:35.122Z,130.29
2023-03-13T17:56:34.964Z,128.40
2023-03-13T18:00:34.829Z,129.10
2023-03-13T18:04:34.634Z,129.13
2023-03-13T18:08:34.447Z,126.67
2023-03-13T18:12:34.318Z,128.29
2023-03-13T18:16:34.249Z,125.43
2023-03-13T18:20:34.712Z,126.14
2023-03-13T18:24:33.864Z,123.24
2023-03-13T18:28:34.223Z,124.17
2023-03-13T18:32:33.705Z,122.67
2023-03-13T18:36:33.595Z,122.81
2023-03-13T18:40:33.598Z,121.96
2023-03-13T18:44:33.587Z,120.46
2023-03-13T18:48:33.549Z,120.29
2023-03-13T18:52:33.514Z,117.39
2023-03-13T18:56:33.488Z,118.19
2023-03-13T19:00:33.526Z,117.76
2023-03-13T19:04:33.453Z,115.76